createdAt,value
2018-12-09T00:01:13.368Z,97904.60
2018-12-09T00:03:39.697Z,97903.63
2018-12-09T00:06:05.944Z,97894.27
2018-12-09T00:08:32.169Z,97909.27
2018-12-09T00:10:58.370Z,97901.78
2018-12-09T00:13:24.473Z,97904.64
2018-12-09T00:15:50.703Z,97900.16
2018-12-09T00:18:17.510Z,97889.41
2018-12-09T00:20:43.827Z,97872.38
2018-12-09T00:23:10.055Z,97859.09
2018-12-09T00:25:36.280Z,97835.26
2018-12-09T00:28:02.601Z,97814.95
2018-12-09T00:30:28.895Z,97802.45
2018-12-09T00:32:55.082Z,97786.23
2018-12-09T00:35:21.375Z,97787.78
2018-12-09T00:37:47.732Z,97785.81
2018-12-09T00:40:14.137Z,97781.41
2018-12-09T00:42:43.551Z,97768.83
2018-12-09T00:45:08.814Z,97767.90
2018-12-09T00:47:34.973Z,97781.27
2018-12-09T00:50:01.384Z,97769.70
2018-12-09T00:52:27.657Z,97768.44
2018-12-09T00:54:54.994Z,97750.03
2018-12-09T00:57:22.170Z,97749.55
2018-12-09T00:59:48.370Z,97742.22
2018-12-09T01:02:21.753Z,97729.33
2018-12-09T01:04:47.867Z,97716.90
2018-12-09T01:07:14.303Z,97710.52
2018-12-09T01:09:40.545Z,97708.23
2018-12-09T01:12:06.955Z,97694.66
2018-12-09T01:14:33.060Z,97683.73
2018-12-09T01:16:59.311Z,97692.88
2018-12-09T01:19:25.550Z,97675.55
2018-12-09T01:21:51.668Z,97659.36
2018-12-09T01:26:51.767Z,97655.13
2018-12-09T01:29:17.937Z,97651.20
2018-12-09T01:31:44.064Z,97629.64
2018-12-09T01:34:10.158Z,97634.23
2018-12-09T01:36:36.414Z,97625.23
2018-12-09T01:39:04.077Z,97615.44
2018-12-09T01:41:30.205Z,97594.51
2018-12-09T01:43:56.318Z,97596.13
2018-12-09T01:46:22.762Z,97584.05
2018-12-09T01:48:49.094Z,97593.36
2018-12-09T01:51:15.388Z,97587.81
2018-12-09T01:54:00.201Z,97570.16
2018-12-09T01:56:26.431Z,97587.97
2018-12-09T01:58:52.571Z,97591.89
2018-12-09T02:01:18.798Z,97578.45
2018-12-09T02:03:44.929Z,97566.99
2018-12-09T02:06:11.161Z,97563.42
2018-12-09T02:08:37.409Z,97571.41
2018-12-09T02:11:03.678Z,97557.20
2018-12-09T02:13:29.913Z,97574.86
2018-12-09T02:15:56.038Z,97559.29
2018-12-09T02:18:22.272Z,97558.12
2018-12-09T02:20:48.603Z,97546.98
2018-12-09T02:23:15.652Z,97555.14
2018-12-09T02:25:41.772Z,97541.53
2018-12-09T02:28:07.896Z,97539.45
2018-12-09T02:30:34.031Z,97543.52
2018-12-09T02:33:00.361Z,97536.68
2018-12-09T02:35:27.132Z,97537.64
2018-12-09T02:37:53.356Z,97539.87
2018-12-09T02:40:19.683Z,97562.42
2018-12-09T02:42:45.933Z,97540.17
2018-12-09T02:45:12.252Z,97538.80
2018-12-09T02:47:38.795Z,97569.13
2018-12-09T02:50:05.937Z,97551.59
2018-12-09T02:52:32.201Z,97541.94
2018-12-09T02:54:58.320Z,97541.74
2018-12-09T02:57:24.538Z,97535.20
2018-12-09T02:59:57.772Z,97537.48
2018-12-09T03:02:24.084Z,97533.30
2018-12-09T03:04:50.407Z,97539.02
2018-12-09T03:07:16.865Z,97499.95
2018-12-09T03:09:43.106Z,97505.70
2018-12-09T03:12:09.820Z,97488.66
2018-12-09T03:14:36.189Z,97502.11
2018-12-09T03:17:02.588Z,97501.37
2018-12-09T03:19:28.770Z,97504.80
2018-12-09T03:21:55.002Z,97500.25
2018-12-09T03:24:21.992Z,97490.16
2018-12-09T03:26:48.328Z,97485.58
2018-12-09T03:29:14.658Z,97487.70
2018-12-09T03:31:40.989Z,97485.27
2018-12-09T03:34:07.110Z,97489.97
2018-12-09T03:36:33.414Z,97500.11
2018-12-09T03:39:00.065Z,97500.61
2018-12-09T03:41:26.426Z,97491.26
2018-12-09T03:43:52.674Z,97486.88
2018-12-09T03:46:19.019Z,97491.06
2018-12-09T03:48:45.145Z,97486.33
2018-12-09T03:51:11.293Z,97478.05
2018-12-09T03:53:37.402Z,97476.58
2018-12-09T03:56:03.736Z,97481.55
2018-12-09T03:58:29.921Z,97477.78
2018-12-09T04:00:56.113Z,97470.45
2018-12-09T04:03:22.440Z,97481.88
2018-12-09T04:05:49.009Z,97480.98
2018-12-09T04:08:15.280Z,97490.31
2018-12-09T04:10:41.749Z,97494.19
2018-12-09T04:13:08.167Z,97502.37
2018-12-09T04:15:36.613Z,97491.14
2018-12-09T04:18:02.967Z,97491.47
2018-12-09T04:20:29.289Z,97492.39
2018-12-09T04:22:55.525Z,97488.91
2018-12-09T04:25:21.836Z,97471.23
2018-12-09T04:27:48.069Z,97466.69
2018-12-09T04:30:14.372Z,97469.61
2018-12-09T04:32:40.826Z,97459.01
2018-12-09T04:35:07.073Z,97411.88
2018-12-09T04:37:33.403Z,97470.12
2018-12-09T04:39:59.627Z,97472.41
2018-12-09T04:42:25.922Z,97474.52
2018-12-09T04:44:52.144Z,97437.81
2018-12-09T04:47:18.240Z,97455.57
2018-12-09T04:49:44.917Z,97470.63
2018-12-09T04:52:11.115Z,97470.76
2018-12-09T04:54:37.238Z,97470.30
2018-12-09T04:57:03.454Z,97473.88
2018-12-09T04:59:31.150Z,97483.54
2018-12-09T05:01:57.450Z,97473.13
2018-12-09T05:04:23.592Z,97481.50
2018-12-09T05:06:49.698Z,97484.23
2018-12-09T05:09:15.901Z,97487.16
2018-12-09T05:11:43.145Z,97490.09
2018-12-09T05:14:09.370Z,97487.31
2018-12-09T05:16:35.581Z,97495.32
2018-12-09T05:19:02.001Z,97496.44
2018-12-09T05:21:28.254Z,97510.16
2018-12-09T05:23:54.455Z,97502.84
2018-12-09T05:26:22.122Z,97507.09
2018-12-09T05:28:48.355Z,97518.83
2018-12-09T05:31:14.583Z,97517.53
2018-12-09T05:33:40.810Z,97520.47
2018-12-09T05:36:07.120Z,97509.72
2018-12-09T05:38:33.976Z,97532.58
2018-12-09T05:41:00.757Z,97526.20
2018-12-09T05:43:26.979Z,97525.20
2018-12-09T05:45:53.080Z,97544.94
2018-12-09T05:48:19.209Z,97547.14
2018-12-09T05:50:45.389Z,97559.14
2018-12-09T05:53:11.707Z,97552.89
2018-12-09T05:55:37.972Z,97550.62
2018-12-09T05:58:04.184Z,97565.44
2018-12-09T06:00:30.515Z,97550.91
2018-12-09T06:02:56.810Z,97564.14
2018-12-09T06:05:23.121Z,97557.23
2018-12-09T06:07:49.896Z,97558.08
2018-12-09T06:10:16.279Z,97566.84
2018-12-09T06:12:42.399Z,97558.45
2018-12-09T06:15:08.714Z,97580.46
2018-12-09T06:17:34.830Z,97565.88
2018-12-09T06:20:01.262Z,97559.55
2018-12-09T06:22:27.834Z,97581.18
2018-12-09T06:24:53.993Z,97576.45
2018-12-09T06:27:20.284Z,97584.37
2018-12-09T06:29:46.505Z,97585.43
2018-12-09T06:32:12.728Z,97581.55
2018-12-09T06:34:38.952Z,97587.73
2018-12-09T06:37:05.080Z,97586.79
2018-12-09T06:39:31.150Z,97592.67
2018-12-09T06:41:57.351Z,97596.73
2018-12-09T06:44:23.492Z,97602.67
2018-12-09T06:46:50.746Z,97588.27
2018-12-09T06:49:17.411Z,97610.06
2018-12-09T06:51:43.796Z,97606.91
2018-12-09T06:54:10.054Z,97631.22
2018-12-09T06:56:37.141Z,97601.45
2018-12-09T06:59:03.536Z,97619.27
2018-12-09T07:01:30.775Z,97630.59
2018-12-09T07:03:57.409Z,97629.97
2018-12-09T07:06:23.677Z,97631.03
2018-12-09T07:08:49.777Z,97632.16
2018-12-09T07:11:16.105Z,97614.73
2018-12-09T07:13:42.234Z,97624.44
2018-12-09T07:16:08.541Z,97623.37
2018-12-09T07:18:35.131Z,97619.53
2018-12-09T07:21:01.463Z,97631.81
2018-12-09T07:23:27.573Z,97634.23
2018-12-09T07:25:53.762Z,97637.17
2018-12-09T07:28:19.901Z,97647.97
2018-12-09T07:30:46.220Z,97652.20
2018-12-09T07:33:12.773Z,97606.61
2018-12-09T07:35:38.985Z,97660.87
2018-12-09T07:38:05.121Z,97667.12
2018-12-09T07:40:31.246Z,97664.77
2018-12-09T07:42:58.089Z,97665.27
2018-12-09T07:45:24.326Z,97673.28
2018-12-09T07:47:50.434Z,97668.59
2018-12-09T07:50:16.783Z,97663.91
2018-12-09T07:52:43.032Z,97663.72
2018-12-09T07:55:09.249Z,97670.26
2018-12-09T07:57:35.367Z,97669.42
2018-12-09T08:00:01.736Z,97671.45
2018-12-09T08:02:27.842Z,97682.04
2018-12-09T08:04:54.071Z,97680.26
2018-12-09T08:07:20.308Z,97692.64
2018-12-09T08:09:46.456Z,97683.70
2018-12-09T08:12:12.819Z,97689.88
2018-12-09T08:14:39.018Z,97695.44
2018-12-09T08:17:05.378Z,97698.39
2018-12-09T08:19:31.577Z,97646.80
2018-12-09T08:21:57.792Z,97691.23
2018-12-09T08:24:23.911Z,97698.06
2018-12-09T08:26:50.510Z,97681.46
2018-12-09T08:29:16.694Z,97704.73
2018-12-09T08:31:43.064Z,97698.87
2018-12-09T08:34:09.253Z,97704.23
2018-12-09T08:36:35.334Z,97715.72
2018-12-09T08:39:01.395Z,97701.05
2018-12-09T08:41:27.814Z,97666.80
2018-12-09T08:43:53.933Z,97706.09
2018-12-09T08:46:20.106Z,97701.20
2018-12-09T08:48:46.283Z,97718.75
2018-12-09T08:51:12.691Z,97701.34
2018-12-09T08:53:39.136Z,97712.95
2018-12-09T08:56:05.416Z,97710.83
2018-12-09T08:58:31.796Z,97713.44
2018-12-09T09:00:58.218Z,97693.80
2018-12-09T09:03:24.758Z,97713.25
2018-12-09T09:05:51.089Z,97716.23
2018-12-09T09:08:17.561Z,97726.84
2018-12-09T09:10:43.840Z,97717.17
2018-12-09T09:13:11.007Z,97717.02
2018-12-09T09:15:37.362Z,97725.23
2018-12-09T09:18:03.670Z,97743.53
2018-12-09T09:20:29.953Z,97728.57
2018-12-09T09:22:56.204Z,97726.55
2018-12-09T09:25:22.365Z,97740.33
2018-12-09T09:27:48.554Z,97743.80
2018-12-09T09:30:15.041Z,97730.36
2018-12-09T09:32:41.369Z,97741.03
2018-12-09T09:35:07.784Z,97734.83
2018-12-09T09:37:34.142Z,97750.15
2018-12-09T09:40:00.559Z,97726.84
2018-12-09T09:42:27.629Z,97742.86
2018-12-09T09:44:53.968Z,97741.11
2018-12-09T09:47:20.228Z,97737.98
2018-12-09T09:49:46.418Z,97748.12
2018-12-09T09:52:12.901Z,97752.94
2018-12-09T09:54:39.152Z,97739.14
2018-12-09T09:57:05.394Z,97738.34
2018-12-09T09:59:31.622Z,97737.24
2018-12-09T10:01:58.073Z,97739.05
2018-12-09T10:04:24.341Z,97738.88
2018-12-09T10:06:50.852Z,97734.95
2018-12-09T10:09:18.026Z,97746.56
2018-12-09T10:11:45.697Z,97747.36
2018-12-09T10:14:11.926Z,97744.44
2018-12-09T10:16:38.215Z,97758.67
2018-12-09T10:19:04.689Z,97742.16
2018-12-09T10:21:31.009Z,97753.77
2018-12-09T10:23:57.227Z,97704.55
2018-12-09T10:26:23.641Z,97734.09
2018-12-09T10:28:50.997Z,97750.46
2018-12-09T10:31:17.679Z,97744.75
2018-12-09T10:33:44.255Z,97750.83
2018-12-09T10:36:10.485Z,97746.71
2018-12-09T10:38:36.838Z,97758.19
2018-12-09T10:41:03.175Z,97749.02
2018-12-09T10:43:29.464Z,97747.51
2018-12-09T10:45:55.660Z,97759.27
2018-12-09T10:48:21.870Z,97757.00
2018-12-09T10:50:48.149Z,97749.66
2018-12-09T10:53:14.486Z,97743.78
2018-12-09T10:55:41.565Z,97773.23
2018-12-09T10:58:07.777Z,97756.58
2018-12-09T11:00:40.100Z,97754.14
2018-12-09T11:03:06.623Z,97743.36
2018-12-09T11:05:32.790Z,97760.70
2018-12-09T11:07:59.017Z,97738.67
2018-12-09T11:10:25.244Z,97739.75
2018-12-09T11:12:51.538Z,97747.11
2018-12-09T11:15:17.672Z,97750.64
2018-12-09T11:17:43.909Z,97757.12
2018-12-09T11:20:10.463Z,97748.22
2018-12-09T11:22:37.405Z,97751.80
2018-12-09T11:25:05.043Z,97742.28
2018-12-09T11:27:31.306Z,97731.48
2018-12-09T11:29:57.679Z,97745.94
2018-12-09T11:32:23.915Z,97739.72
2018-12-09T11:34:50.053Z,97749.45
2018-12-09T11:37:16.370Z,97753.73
2018-12-09T11:39:42.749Z,97741.02
2018-12-09T11:42:09.118Z,97757.99
2018-12-09T11:44:36.021Z,97759.73
2018-12-09T11:47:02.473Z,97772.94
2018-12-09T11:49:28.619Z,97761.89
2018-12-09T11:51:55.591Z,97769.55
2018-12-09T11:54:21.974Z,97769.59
2018-12-09T11:56:48.245Z,97762.27
2018-12-09T11:59:15.235Z,97781.86
2018-12-09T12:01:41.463Z,97772.55
2018-12-09T12:04:07.696Z,97766.22
2018-12-09T12:06:40.873Z,97759.92
2018-12-09T12:09:07.120Z,97752.99
2018-12-09T12:11:33.373Z,97776.87
2018-12-09T12:13:59.851Z,97766.31
2018-12-09T12:16:26.310Z,97765.31
2018-12-09T12:18:52.768Z,97775.72
2018-12-09T12:21:18.904Z,97760.89
2018-12-09T12:23:45.772Z,97739.77
2018-12-09T12:26:12.937Z,97789.41
2018-12-09T12:28:39.200Z,97783.05
2018-12-09T12:31:05.442Z,97783.67
2018-12-09T12:33:31.554Z,97796.59
2018-12-09T12:35:57.745Z,97786.44
2018-12-09T12:38:23.945Z,97782.16
2018-12-09T12:40:50.185Z,97793.27
2018-12-09T12:43:16.394Z,97803.63
2018-12-09T12:45:42.614Z,97804.80
2018-12-09T12:48:08.874Z,97787.44
2018-12-09T12:50:35.184Z,97789.49
2018-12-09T12:53:01.647Z,97793.20
2018-12-09T12:55:28.121Z,97793.02
2018-12-09T12:57:54.536Z,97800.59
2018-12-09T13:00:22.242Z,97809.71
2018-12-09T13:02:48.473Z,97806.57
2018-12-09T13:05:14.715Z,97811.66
2018-12-09T13:07:40.825Z,97806.05
2018-12-09T13:10:07.261Z,97804.66
2018-12-09T13:12:33.561Z,97816.28
2018-12-09T13:14:59.914Z,97813.58
2018-12-09T13:17:26.455Z,97815.95
2018-12-09T13:19:52.791Z,97827.29
2018-12-09T13:22:19.913Z,97844.76
2018-12-09T13:24:46.153Z,97838.13
2018-12-09T13:27:12.965Z,97837.20
2018-12-09T13:29:39.406Z,97838.17
2018-12-09T13:32:05.602Z,97838.99
2018-12-09T13:34:31.829Z,97845.33
2018-12-09T13:36:58.065Z,97852.74
2018-12-09T13:39:26.283Z,97873.47
2018-12-09T13:41:52.721Z,97857.10
2018-12-09T13:44:19.164Z,97873.08
2018-12-09T13:46:45.435Z,97859.23
2018-12-09T13:49:11.558Z,97855.42
2018-12-09T13:51:37.741Z,97865.78
2018-12-09T13:54:04.381Z,97870.18
2018-12-09T13:56:30.661Z,97904.73
2018-12-09T13:58:57.539Z,97932.81
2018-12-09T14:01:23.977Z,97960.11
2018-12-09T14:03:50.196Z,97959.73
2018-12-09T14:06:16.425Z,97958.15
2018-12-09T14:08:42.546Z,97973.73
2018-12-09T14:11:08.750Z,97961.11
2018-12-09T14:13:35.690Z,97978.60
2018-12-09T14:16:01.809Z,97949.90
2018-12-09T14:18:28.360Z,97955.67
2018-12-09T14:20:54.728Z,97965.27
2018-12-09T14:23:21.906Z,97961.27
2018-12-09T14:25:48.139Z,97962.39
2018-12-09T14:28:14.609Z,97971.88
2018-12-09T14:30:41.086Z,97970.14
2018-12-09T14:33:07.337Z,97969.62
2018-12-09T14:35:33.650Z,97969.12
2018-12-09T14:37:59.902Z,97976.51
2018-12-09T14:40:26.127Z,97973.90
2018-12-09T14:42:52.394Z,97987.22
2018-12-09T14:45:18.565Z,97988.04
2018-12-09T14:47:44.738Z,97991.88
2018-12-09T14:50:11.138Z,97996.76
2018-12-09T14:52:37.457Z,97980.87
2018-12-09T14:55:03.889Z,97988.96
2018-12-09T14:57:30.924Z,97999.05
2018-12-09T14:59:57.030Z,97996.22
2018-12-09T15:02:23.288Z,97997.03
2018-12-09T15:04:57.341Z,98004.09
2018-12-09T15:07:23.481Z,98006.16
2018-12-09T15:09:50.291Z,98016.21
2018-12-09T15:12:16.739Z,98009.16
2018-12-09T15:14:42.931Z,98012.31
2018-12-09T15:17:09.301Z,98021.53
2018-12-09T15:19:35.528Z,98005.45
2018-12-09T15:22:02.482Z,97995.84
2018-12-09T15:24:29.618Z,98020.39
2018-12-09T15:26:56.216Z,98021.38
2018-12-09T15:29:22.472Z,98020.64
2018-12-09T15:31:48.738Z,98037.94
2018-12-09T15:34:15.145Z,98030.65
2018-12-09T15:36:41.362Z,98043.08
2018-12-09T15:39:07.602Z,98044.98
2018-12-09T15:41:33.865Z,98039.84
2018-12-09T15:44:00.093Z,98056.33
2018-12-09T15:46:26.443Z,98040.70
2018-12-09T15:48:52.730Z,98041.33
2018-12-09T15:51:19.091Z,98043.92
2018-12-09T15:53:45.401Z,98041.33
2018-12-09T15:56:11.697Z,98050.33
2018-12-09T15:58:37.920Z,98055.22
2018-12-09T16:01:04.209Z,98049.75
2018-12-09T16:03:31.401Z,98056.10
2018-12-09T16:05:57.554Z,98054.05
2018-12-09T16:08:23.812Z,98057.16
2018-12-09T16:10:50.017Z,98066.93
2018-12-09T16:13:16.231Z,98073.45
2018-12-09T16:15:42.602Z,98077.05
2018-12-09T16:18:08.753Z,98080.39
2018-12-09T16:20:35.013Z,98082.83
2018-12-09T16:23:01.153Z,98084.27
2018-12-09T16:25:27.775Z,98085.70
2018-12-09T16:28:00.957Z,98098.02
2018-12-09T16:30:27.173Z,98094.92
2018-12-09T16:32:54.311Z,98107.44
2018-12-09T16:35:20.646Z,98110.73
2018-12-09T16:37:46.850Z,98119.70
2018-12-09T16:40:13.152Z,98126.23
2018-12-09T16:42:39.357Z,98121.07
2018-12-09T16:45:05.695Z,98115.92
2018-12-09T16:47:32.814Z,98113.80
2018-12-09T16:49:59.024Z,98120.51
2018-12-09T16:52:25.265Z,98101.59
2018-12-09T16:54:51.556Z,98117.91
2018-12-09T16:57:17.665Z,98123.78
2018-12-09T16:59:43.914Z,98135.14
2018-12-09T17:02:10.193Z,98130.00
2018-12-09T17:04:37.206Z,98134.35
2018-12-09T17:07:03.521Z,98139.05
2018-12-09T17:09:29.766Z,98146.19
2018-12-09T17:11:55.995Z,98143.31
2018-12-09T17:14:22.190Z,98152.92
2018-12-09T17:16:49.355Z,98159.70
2018-12-09T17:19:15.518Z,98155.31
2018-12-09T17:21:41.865Z,98166.78
2018-12-09T17:24:08.124Z,98176.26
2018-12-09T17:26:34.354Z,98183.55
2018-12-09T17:29:05.316Z,98184.77
2018-12-09T17:31:29.952Z,98192.25
2018-12-09T17:33:56.076Z,98189.84
2018-12-09T17:36:22.488Z,98186.13
2018-12-09T17:38:48.823Z,98201.29
2018-12-09T17:41:15.720Z,98193.56
2018-12-09T17:43:41.900Z,98192.45
2018-12-09T17:46:08.070Z,98204.30
2018-12-09T17:48:34.248Z,98209.53
2018-12-09T17:51:00.510Z,98217.84
2018-12-09T17:53:26.834Z,98220.42
2018-12-09T17:55:53.851Z,98224.50
2018-12-09T17:58:20.030Z,98241.16
2018-12-09T18:00:46.129Z,98233.89
2018-12-09T18:03:12.438Z,98252.22
2018-12-09T18:05:38.543Z,98260.23
2018-12-09T18:08:04.756Z,98244.67
2018-12-09T18:10:31.088Z,98247.06
2018-12-09T18:12:57.227Z,98269.57
2018-12-09T18:15:24.386Z,98256.19
2018-12-09T18:17:50.553Z,98286.86
2018-12-09T18:20:17.934Z,98276.63
2018-12-09T18:22:50.855Z,98277.80
2018-12-09T18:25:17.081Z,98286.76
2018-12-09T18:27:43.723Z,98278.25
2018-12-09T18:30:10.549Z,98293.48
2018-12-09T18:32:36.863Z,98290.04
2018-12-09T18:35:04.488Z,98297.95
2018-12-09T18:37:31.854Z,98262.01
2018-12-09T18:39:58.353Z,98310.92
2018-12-09T18:42:25.738Z,98315.34
2018-12-09T18:44:51.983Z,98314.52
2018-12-09T18:47:25.181Z,98313.40
2018-12-09T18:49:51.340Z,98310.92
2018-12-09T18:52:17.893Z,98326.74
2018-12-09T18:54:44.054Z,98305.91
2018-12-09T18:57:10.277Z,98338.44
2018-12-09T18:59:36.509Z,98324.25
2018-12-09T19:02:02.918Z,98317.14
2018-12-09T19:04:29.044Z,98346.65
2018-12-09T19:06:55.287Z,98348.72
2018-12-09T19:09:21.547Z,98343.12
2018-12-09T19:11:47.859Z,98358.95
2018-12-09T19:14:14.022Z,98351.35
2018-12-09T19:16:40.151Z,98369.60
2018-12-09T19:19:06.301Z,98361.25
2018-12-09T19:21:32.484Z,98366.14
2018-12-09T19:23:58.781Z,98380.67
2018-12-09T19:26:25.086Z,98359.34
2018-12-09T19:28:51.371Z,98371.70
2018-12-09T19:31:17.517Z,98379.23
2018-12-09T19:33:43.701Z,98384.69
2018-12-09T19:36:09.865Z,98372.85
2018-12-09T19:38:40.187Z,98395.61
2018-12-09T19:41:04.463Z,98398.91
2018-12-09T19:43:30.727Z,98404.85
2018-12-09T19:45:56.983Z,98405.26
2018-12-09T19:48:23.256Z,98418.26
2018-12-09T19:50:50.402Z,98420.84
2018-12-09T19:53:16.749Z,98427.27
2018-12-09T19:55:43.005Z,98437.26
2018-12-09T19:58:09.196Z,98435.76
2018-12-09T20:00:35.389Z,98443.77
2018-12-09T20:03:01.591Z,98415.70
2018-12-09T20:05:27.863Z,98442.94
2018-12-09T20:07:54.214Z,98457.02
2018-12-09T20:10:20.448Z,98476.06
2018-12-09T20:12:46.606Z,98478.70
2018-12-09T20:15:13.053Z,98481.23
2018-12-09T20:17:39.166Z,98486.28
2018-12-09T20:20:06.018Z,98488.41
2018-12-09T20:22:32.751Z,98495.34
2018-12-09T20:24:59.486Z,98502.35
2018-12-09T20:27:25.652Z,98503.53
2018-12-09T20:29:51.917Z,98472.55
2018-12-09T20:32:18.247Z,98510.00
2018-12-09T20:34:44.581Z,98501.14
2018-12-09T20:37:10.826Z,98522.99
2018-12-09T20:39:36.966Z,98521.27
2018-12-09T20:42:03.295Z,98529.00
2018-12-09T20:44:29.410Z,98540.43
2018-12-09T20:46:55.689Z,98523.96
2018-12-09T20:49:22.038Z,98530.43
2018-12-09T20:51:48.366Z,98537.72
2018-12-09T20:54:14.817Z,98541.44
2018-12-09T20:56:40.974Z,98543.16
2018-12-09T20:59:13.890Z,98560.01
2018-12-09T21:01:40.542Z,98569.81
2018-12-09T21:04:06.743Z,98586.38
2018-12-09T21:06:32.954Z,98569.96
2018-12-09T21:08:59.140Z,98559.80
2018-12-09T21:11:25.365Z,98559.66
2018-12-09T21:13:51.931Z,98564.05
2018-12-09T21:16:18.237Z,98577.38
2018-12-09T21:18:44.359Z,98568.02
2018-12-09T21:21:10.725Z,98588.00
2018-12-09T21:23:36.849Z,98599.80
2018-12-09T21:26:03.199Z,98604.83
2018-12-09T21:28:29.507Z,98625.24
2018-12-09T21:30:55.735Z,98629.52
2018-12-09T21:33:21.936Z,98639.07
2018-12-09T21:35:48.174Z,98589.47
2018-12-09T21:38:14.654Z,98599.52
2018-12-09T21:40:40.808Z,98616.30
2018-12-09T21:43:06.955Z,98619.02
2018-12-09T21:45:33.086Z,98612.97
2018-12-09T21:47:59.188Z,98617.91
2018-12-09T21:50:25.595Z,98632.69
2018-12-09T21:52:52.061Z,98628.95
2018-12-09T21:55:18.181Z,98618.69
2018-12-09T21:57:44.761Z,98624.92
2018-12-09T22:00:11.200Z,98631.91
2018-12-09T22:02:37.453Z,98634.99
2018-12-09T22:05:05.626Z,98649.75
2018-12-09T22:07:31.863Z,98648.22
2018-12-09T22:09:58.164Z,98650.67
2018-12-09T22:12:24.691Z,98679.20
2018-12-09T22:14:50.949Z,98647.84
2018-12-09T22:17:17.565Z,98669.23
2018-12-09T22:19:44.480Z,98661.08
2018-12-09T22:22:10.614Z,98661.03
2018-12-09T22:24:36.746Z,98662.00
2018-12-09T22:27:03.062Z,98676.92
2018-12-09T22:29:29.257Z,98670.41
2018-12-09T22:31:55.369Z,98689.72
2018-12-09T22:34:21.494Z,98676.36
2018-12-09T22:36:47.660Z,98686.66
2018-12-09T22:39:14.003Z,98694.22
2018-12-09T22:41:40.209Z,98698.03
2018-12-09T22:44:07.262Z,98715.16
2018-12-09T22:46:33.385Z,98723.58
2018-12-09T22:48:59.646Z,98721.10
2018-12-09T22:51:32.640Z,98711.03
2018-12-09T22:53:59.797Z,98707.13
2018-12-09T22:56:26.055Z,98719.92
2018-12-09T22:58:52.140Z,98719.92
2018-12-09T23:01:19.123Z,98710.08
2018-12-09T23:03:45.648Z,98714.36
2018-12-09T23:06:11.956Z,98733.52
2018-12-09T23:08:38.249Z,98686.06
2018-12-09T23:11:04.616Z,98776.67
2018-12-09T23:13:31.677Z,98723.80
2018-12-09T23:15:57.935Z,98744.40
2018-12-09T23:18:24.049Z,98742.27
2018-12-09T23:20:50.272Z,98755.39
2018-12-09T23:23:16.489Z,98751.27
2018-12-09T23:25:42.912Z,98751.27
2018-12-09T23:28:09.159Z,98750.22
2018-12-09T23:30:35.647Z,98760.59
2018-12-09T23:33:01.783Z,98762.41
2018-12-09T23:35:28.184Z,98761.98
2018-12-09T23:37:54.284Z,98757.98
2018-12-09T23:40:20.519Z,98784.27
2018-12-09T23:42:47.031Z,98781.09
2018-12-09T23:45:13.248Z,98783.41
2018-12-09T23:47:39.642Z,98743.84
2018-12-09T23:50:06.145Z,98798.79
2018-12-09T23:52:33.430Z,98794.52
2018-12-09T23:54:59.944Z,98797.42
2018-12-09T23:57:26.161Z,98798.55
2018-12-09T23:59:52.306Z,98797.58
